sensor_id;sensor_type;location;lat;lon;timestamp;P1;durP1;ratioP1;P2;durP2;ratioP2
28174;SDS011;59417;44.788;10.334;2023-04-07T00:00:26;10.15;;;7.15;;
28174;SDS011;59417;44.788;10.334;2023-04-07T00:02:52;10.27;;;7.18;;
28174;SDS011;59417;44.788;10.334;2023-04-07T00:05:18;9.40;;;6.93;;
28174;SDS011;59417;44.788;10.334;2023-04-07T00:07:43;10.73;;;7.50;;
28174;SDS011;59417;44.788;10.334;2023-04-07T00:10:09;8.60;;;6.95;;
28174;SDS011;59417;44.788;10.334;2023-04-07T00:12:35;8.38;;;6.70;;
28174;SDS011;59417;44.788;10.334;2023-04-07T00:15:01;9.30;;;6.93;;
28174;SDS011;59417;44.788;10.334;2023-04-07T00:17:27;8.32;;;6.50;;
28174;SDS011;59417;44.788;10.334;2023-04-07T00:19:52;9.57;;;6.93;;
28174;SDS011;59417;44.788;10.334;2023-04-07T00:22:18;8.95;;;7.15;;
28174;SDS011;59417;44.788;10.334;2023-04-07T00:24:43;8.27;;;6.20;;
28174;SDS011;59417;44.788;10.334;2023-04-07T00:27:09;11.13;;;6.45;;
28174;SDS011;59417;44.788;10.334;2023-04-07T00:29:35;8.80;;;6.25;;
28174;SDS011;59417;44.788;10.334;2023-04-07T00:32:00;10.73;;;6.47;;
28174;SDS011;59417;44.788;10.334;2023-04-07T00:34:26;9.75;;;6.43;;
28174;SDS011;59417;44.788;10.334;2023-04-07T00:36:52;8.63;;;6.13;;
28174;SDS011;59417;44.788;10.334;2023-04-07T00:39:18;8.07;;;6.05;;
28174;SDS011;59417;44.788;10.334;2023-04-07T00:41:46;7.70;;;6.32;;
28174;SDS011;59417;44.788;10.334;2023-04-07T00:44:12;8.32;;;5.78;;
28174;SDS011;59417;44.788;10.334;2023-04-07T00:46:38;9.15;;;5.80;;
28174;SDS011;59417;44.788;10.334;2023-04-07T00:49:04;7.93;;;6.40;;
28174;SDS011;59417;44.788;10.334;2023-04-07T00:51:31;11.77;;;6.05;;
28174;SDS011;59417;44.788;10.334;2023-04-07T00:53:56;8.20;;;5.68;;
28174;SDS011;59417;44.788;10.334;2023-04-07T00:56:22;8.02;;;5.55;;
28174;SDS011;59417;44.788;10.334;2023-04-07T00:58:48;8.77;;;5.90;;
28174;SDS011;59417;44.788;10.334;2023-04-07T01:01:30;8.35;;;6.10;;
28174;SDS011;59417;44.788;10.334;2023-04-07T01:04:08;8.55;;;5.70;;
28174;SDS011;59417;44.788;10.334;2023-04-07T01:06:39;6.50;;;5.50;;
28174;SDS011;59417;44.788;10.334;2023-04-07T01:09:14;9.77;;;6.60;;
28174;SDS011;59417;44.788;10.334;2023-04-07T01:11:48;8.45;;;6.30;;
28174;SDS011;59417;44.788;10.334;2023-04-07T01:14:18;9.05;;;6.25;;
28174;SDS011;59417;44.788;10.334;2023-04-07T01:16:51;7.20;;;5.70;;
28174;SDS011;59417;44.788;10.334;2023-04-07T01:22:22;8.85;;;5.97;;
28174;SDS011;59417;44.788;10.334;2023-04-07T01:25:10;7.45;;;5.72;;
28174;SDS011;59417;44.788;10.334;2023-04-07T01:30:34;12.10;;;6.32;;
28174;SDS011;59417;44.788;10.334;2023-04-07T01:33:04;9.52;;;5.25;;
28174;SDS011;59417;44.788;10.334;2023-04-07T01:35:31;7.38;;;5.80;;
28174;SDS011;59417;44.788;10.334;2023-04-07T01:37:59;12.60;;;5.70;;
28174;SDS011;59417;44.788;10.334;2023-04-07T01:40:26;7.63;;;5.57;;
28174;SDS011;59417;44.788;10.334;2023-04-07T01:42:53;10.77;;;5.85;;
28174;SDS011;59417;44.788;10.334;2023-04-07T01:45:21;7.63;;;5.35;;
28174;SDS011;59417;44.788;10.334;2023-04-07T01:47:48;9.40;;;5.57;;
28174;SDS011;59417;44.788;10.334;2023-04-07T01:50:15;8.25;;;5.60;;
28174;SDS011;59417;44.788;10.334;2023-04-07T01:52:41;7.05;;;5.63;;
28174;SDS011;59417;44.788;10.334;2023-04-07T01:55:09;10.45;;;6.50;;
28174;SDS011;59417;44.788;10.334;2023-04-07T01:57:40;8.20;;;6.05;;
28174;SDS011;59417;44.788;10.334;2023-04-07T02:00:12;8.23;;;5.75;;
28174;SDS011;59417;44.788;10.334;2023-04-07T02:02:44;8.40;;;5.85;;
28174;SDS011;59417;44.788;10.334;2023-04-07T02:05:17;7.68;;;5.70;;
28174;SDS011;59417;44.788;10.334;2023-04-07T02:07:51;9.45;;;5.60;;
28174;SDS011;59417;44.788;10.334;2023-04-07T02:10:20;7.28;;;5.75;;
28174;SDS011;59417;44.788;10.334;2023-04-07T02:12:51;6.28;;;5.68;;
28174;SDS011;59417;44.788;10.334;2023-04-07T02:15:18;8.07;;;5.93;;
28174;SDS011;59417;44.788;10.334;2023-04-07T02:17:48;9.10;;;6.13;;
28174;SDS011;59417;44.788;10.334;2023-04-07T02:20:17;8.63;;;5.88;;
28174;SDS011;59417;44.788;10.334;2023-04-07T02:22:43;8.00;;;5.85;;
28174;SDS011;59417;44.788;10.334;2023-04-07T02:25:29;9.27;;;6.05;;
28174;SDS011;59417;44.788;10.334;2023-04-07T02:27:57;7.35;;;5.18;;
28174;SDS011;59417;44.788;10.334;2023-04-07T02:30:24;7.85;;;5.13;;
28174;SDS011;59417;44.788;10.334;2023-04-07T02:32:52;7.78;;;5.20;;
28174;SDS011;59417;44.788;10.334;2023-04-07T02:35:18;5.85;;;5.15;;
28174;SDS011;59417;44.788;10.334;2023-04-07T02:37:44;7.10;;;5.20;;
28174;SDS011;59417;44.788;10.334;2023-04-07T02:40:11;6.88;;;5.25;;
28174;SDS011;59417;44.788;10.334;2023-04-07T02:42:37;6.68;;;4.88;;
28174;SDS011;59417;44.788;10.334;2023-04-07T02:45:06;8.10;;;5.00;;
28174;SDS011;59417;44.788;10.334;2023-04-07T02:47:33;5.95;;;5.28;;
28174;SDS011;59417;44.788;10.334;2023-04-07T02:50:00;9.73;;;6.05;;
28174;SDS011;59417;44.788;10.334;2023-04-07T02:52:25;8.77;;;5.03;;
28174;SDS011;59417;44.788;10.334;2023-04-07T02:54:52;7.80;;;5.18;;
28174;SDS011;59417;44.788;10.334;2023-04-07T02:57:21;9.20;;;5.20;;
28174;SDS011;59417;44.788;10.334;2023-04-07T02:59:49;10.90;;;5.88;;
28174;SDS011;59417;44.788;10.334;2023-04-07T03:02:15;7.85;;;5.28;;
28174;SDS011;59417;44.788;10.334;2023-04-07T03:04:41;6.40;;;5.15;;
28174;SDS011;59417;44.788;10.334;2023-04-07T03:07:06;9.90;;;5.20;;
28174;SDS011;59417;44.788;10.334;2023-04-07T03:09:32;9.30;;;5.18;;
28174;SDS011;59417;44.788;10.334;2023-04-07T03:11:58;6.70;;;5.15;;
28174;SDS011;59417;44.788;10.334;2023-04-07T03:14:29;6.85;;;5.35;;
28174;SDS011;59417;44.788;10.334;2023-04-07T03:16:58;9.60;;;5.30;;
28174;SDS011;59417;44.788;10.334;2023-04-07T03:19:24;6.68;;;4.80;;
28174;SDS011;59417;44.788;10.334;2023-04-07T03:21:51;10.35;;;5.25;;
28174;SDS011;59417;44.788;10.334;2023-04-07T03:24:16;7.70;;;5.20;;
28174;SDS011;59417;44.788;10.334;2023-04-07T03:26:44;7.57;;;4.93;;
28174;SDS011;59417;44.788;10.334;2023-04-07T03:29:20;10.15;;;6.00;;
28174;SDS011;59417;44.788;10.334;2023-04-07T03:31:45;6.97;;;5.03;;
28174;SDS011;59417;44.788;10.334;2023-04-07T03:34:14;6.72;;;5.03;;
28174;SDS011;59417;44.788;10.334;2023-04-07T03:36:40;7.93;;;5.13;;
28174;SDS011;59417;44.788;10.334;2023-04-07T03:39:05;7.28;;;4.60;;
28174;SDS011;59417;44.788;10.334;2023-04-07T03:41:31;7.82;;;5.47;;
28174;SDS011;59417;44.788;10.334;2023-04-07T03:43:57;6.55;;;4.47;;
28174;SDS011;59417;44.788;10.334;2023-04-07T03:46:22;7.60;;;4.72;;
28174;SDS011;59417;44.788;10.334;2023-04-07T03:48:51;8.35;;;4.95;;
28174;SDS011;59417;44.788;10.334;2023-04-07T03:51:19;6.38;;;5.45;;
28174;SDS011;59417;44.788;10.334;2023-04-07T03:53:48;6.93;;;5.40;;
28174;SDS011;59417;44.788;10.334;2023-04-07T03:56:25;10.02;;;5.70;;
28174;SDS011;59417;44.788;10.334;2023-04-07T03:58:51;11.02;;;5.85;;
28174;SDS011;59417;44.788;10.334;2023-04-07T04:01:25;10.45;;;5.18;;
28174;SDS011;59417;44.788;10.334;2023-04-07T04:03:52;7.75;;;5.70;;
28174;SDS011;59417;44.788;10.334;2023-04-07T04:06:25;7.95;;;5.53;;
28174;SDS011;59417;44.788;10.334;2023-04-07T04:08:56;7.40;;;4.93;;
28174;SDS011;59417;44.788;10.334;2023-04-07T04:11:23;7.25;;;4.85;;
28174;SDS011;59417;44.788;10.334;2023-04-07T04:13:55;8.00;;;4.43;;
28174;SDS011;59417;44.788;10.334;2023-04-07T04:16:21;11.00;;;5.25;;
28174;SDS011;59417;44.788;10.334;2023-04-07T04:18:49;9.32;;;5.93;;
28174;SDS011;59417;44.788;10.334;2023-04-07T04:21:15;7.68;;;5.25;;
28174;SDS011;59417;44.788;10.334;2023-04-07T04:23:43;13.82;;;5.88;;
28174;SDS011;59417;44.788;10.334;2023-04-07T04:26:08;9.43;;;5.32;;
28174;SDS011;59417;44.788;10.334;2023-04-07T04:28:36;10.00;;;5.90;;
28174;SDS011;59417;44.788;10.334;2023-04-07T04:31:04;9.00;;;5.50;;
28174;SDS011;59417;44.788;10.334;2023-04-07T04:33:36;10.05;;;6.85;;
28174;SDS011;59417;44.788;10.334;2023-04-07T04:36:02;12.23;;;7.05;;
28174;SDS011;59417;44.788;10.334;2023-04-07T04:38:29;10.85;;;6.35;;
28174;SDS011;59417;44.788;10.334;2023-04-07T04:41:02;13.02;;;6.97;;
28174;SDS011;59417;44.788;10.334;2023-04-07T04:43:30;14.00;;;6.60;;
28174;SDS011;59417;44.788;10.334;2023-04-07T04:45:57;10.55;;;7.70;;
28174;SDS011;59417;44.788;10.334;2023-04-07T04:48:25;15.70;;;7.95;;
28174;SDS011;59417;44.788;10.334;2023-04-07T04:50:51;11.80;;;7.65;;
28174;SDS011;59417;44.788;10.334;2023-04-07T04:53:17;11.32;;;7.53;;
28174;SDS011;59417;44.788;10.334;2023-04-07T04:55:52;15.60;;;7.75;;
28174;SDS011;59417;44.788;10.334;2023-04-07T04:58:26;12.82;;;7.88;;
28174;SDS011;59417;44.788;10.334;2023-04-07T05:00:54;13.50;;;8.10;;
28174;SDS011;59417;44.788;10.334;2023-04-07T05:03:33;14.30;;;7.47;;
28174;SDS011;59417;44.788;10.334;2023-04-07T05:06:02;12.63;;;7.75;;
28174;SDS011;59417;44.788;10.334;2023-04-07T05:08:28;13.60;;;7.28;;
28174;SDS011;59417;44.788;10.334;2023-04-07T05:10:56;11.90;;;7.68;;
28174;SDS011;59417;44.788;10.334;2023-04-07T05:13:24;8.27;;;6.90;;
28174;SDS011;59417;44.788;10.334;2023-04-07T05:15:51;20.23;;;8.77;;
28174;SDS011;59417;44.788;10.334;2023-04-07T05:18:17;18.42;;;8.80;;
28174;SDS011;59417;44.788;10.334;2023-04-07T05:20:43;12.63;;;9.23;;
28174;SDS011;59417;44.788;10.334;2023-04-07T05:23:10;16.38;;;8.98;;
28174;SDS011;59417;44.788;10.334;2023-04-07T05:25:36;18.33;;;8.80;;
28174;SDS011;59417;44.788;10.334;2023-04-07T05:28:03;15.35;;;7.95;;
28174;SDS011;59417;44.788;10.334;2023-04-07T05:30:30;13.95;;;7.47;;
28174;SDS011;59417;44.788;10.334;2023-04-07T05:32:59;13.93;;;7.75;;
28174;SDS011;59417;44.788;10.334;2023-04-07T05:35:51;14.00;;;7.97;;
28174;SDS011;59417;44.788;10.334;2023-04-07T05:38:16;17.02;;;7.90;;
28174;SDS011;59417;44.788;10.334;2023-04-07T05:40:43;11.57;;;6.43;;
28174;SDS011;59417;44.788;10.334;2023-04-07T05:43:15;8.88;;;6.53;;
28174;SDS011;59417;44.788;10.334;2023-04-07T05:45:41;11.98;;;6.45;;
28174;SDS011;59417;44.788;10.334;2023-04-07T05:48:10;9.82;;;6.28;;
28174;SDS011;59417;44.788;10.334;2023-04-07T05:50:41;8.38;;;5.15;;
28174;SDS011;59417;44.788;10.334;2023-04-07T05:53:11;7.47;;;5.07;;
28174;SDS011;59417;44.788;10.334;2023-04-07T05:55:36;11.40;;;5.90;;
28174;SDS011;59417;44.788;10.334;2023-04-07T05:58:05;9.00;;;5.70;;
28174;SDS011;59417;44.788;10.334;2023-04-07T06:00:31;6.53;;;5.22;;
28174;SDS011;59417;44.788;10.334;2023-04-07T06:03:06;8.95;;;5.20;;
28174;SDS011;59417;44.788;10.334;2023-04-07T06:05:44;10.40;;;4.68;;
28174;SDS011;59417;44.788;10.334;2023-04-07T06:08:11;10.40;;;5.35;;
28174;SDS011;59417;44.788;10.334;2023-04-07T06:10:37;13.60;;;5.60;;
28174;SDS011;59417;44.788;10.334;2023-04-07T06:13:04;7.97;;;5.25;;
28174;SDS011;59417;44.788;10.334;2023-04-07T06:15:30;8.68;;;5.10;;
28174;SDS011;59417;44.788;10.334;2023-04-07T06:17:56;10.43;;;5.60;;
28174;SDS011;59417;44.788;10.334;2023-04-07T06:20:23;11.75;;;5.18;;
28174;SDS011;59417;44.788;10.334;2023-04-07T06:22:49;9.95;;;4.85;;
28174;SDS011;59417;44.788;10.334;2023-04-07T06:25:15;10.63;;;4.80;;
28174;SDS011;59417;44.788;10.334;2023-04-07T06:27:41;9.25;;;5.53;;
28174;SDS011;59417;44.788;10.334;2023-04-07T06:30:07;8.65;;;5.47;;
28174;SDS011;59417;44.788;10.334;2023-04-07T06:32:34;7.28;;;5.80;;
28174;SDS011;59417;44.788;10.334;2023-04-07T06:34:59;7.68;;;5.05;;
28174;SDS011;59417;44.788;10.334;2023-04-07T06:37:25;13.95;;;5.55;;
28174;SDS011;59417;44.788;10.334;2023-04-07T06:39:52;15.73;;;5.82;;
28174;SDS011;59417;44.788;10.334;2023-04-07T06:42:18;9.63;;;5.43;;
28174;SDS011;59417;44.788;10.334;2023-04-07T06:44:53;7.57;;;5.35;;
28174;SDS011;59417;44.788;10.334;2023-04-07T06:47:18;12.20;;;5.57;;
28174;SDS011;59417;44.788;10.334;2023-04-07T06:49:44;10.05;;;5.80;;
28174;SDS011;59417;44.788;10.334;2023-04-07T06:52:09;13.60;;;5.45;;
28174;SDS011;59417;44.788;10.334;2023-04-07T06:54:35;10.45;;;6.00;;
28174;SDS011;59417;44.788;10.334;2023-04-07T06:57:01;8.93;;;5.38;;
28174;SDS011;59417;44.788;10.334;2023-04-07T06:59:26;9.18;;;5.63;;
28174;SDS011;59417;44.788;10.334;2023-04-07T07:01:52;11.55;;;6.22;;
28174;SDS011;59417;44.788;10.334;2023-04-07T07:04:18;8.60;;;6.32;;
28174;SDS011;59417;44.788;10.334;2023-04-07T07:06:43;8.57;;;5.78;;
28174;SDS011;59417;44.788;10.334;2023-04-07T07:09:09;10.60;;;6.55;;
28174;SDS011;59417;44.788;10.334;2023-04-07T07:11:35;14.63;;;7.15;;
28174;SDS011;59417;44.788;10.334;2023-04-07T07:14:00;8.48;;;6.50;;
28174;SDS011;59417;44.788;10.334;2023-04-07T07:16:26;9.95;;;6.13;;
28174;SDS011;59417;44.788;10.334;2023-04-07T07:18:53;12.35;;;7.00;;
28174;SDS011;59417;44.788;10.334;2023-04-07T07:21:19;12.27;;;6.70;;
28174;SDS011;59417;44.788;10.334;2023-04-07T07:23:45;10.65;;;6.93;;
28174;SDS011;59417;44.788;10.334;2023-04-07T07:26:10;10.60;;;6.57;;
28174;SDS011;59417;44.788;10.334;2023-04-07T07:28:36;9.68;;;6.90;;
28174;SDS011;59417;44.788;10.334;2023-04-07T07:31:08;15.93;;;6.65;;
28174;SDS011;59417;44.788;10.334;2023-04-07T07:33:35;9.10;;;6.57;;
28174;SDS011;59417;44.788;10.334;2023-04-07T07:36:00;10.32;;;6.68;;
28174;SDS011;59417;44.788;10.334;2023-04-07T07:38:26;12.27;;;6.57;;
28174;SDS011;59417;44.788;10.334;2023-04-07T07:40:52;16.40;;;7.90;;
28174;SDS011;59417;44.788;10.334;2023-04-07T07:43:18;16.48;;;7.85;;
28174;SDS011;59417;44.788;10.334;2023-04-07T07:45:43;17.27;;;10.48;;
28174;SDS011;59417;44.788;10.334;2023-04-07T07:48:09;15.63;;;9.00;;
28174;SDS011;59417;44.788;10.334;2023-04-07T07:50:35;12.18;;;8.55;;
28174;SDS011;59417;44.788;10.334;2023-04-07T07:53:01;17.15;;;8.00;;
28174;SDS011;59417;44.788;10.334;2023-04-07T07:55:27;12.35;;;8.65;;
28174;SDS011;59417;44.788;10.334;2023-04-07T07:57:52;16.15;;;8.68;;
28174;SDS011;59417;44.788;10.334;2023-04-07T08:00:18;14.85;;;9.25;;
28174;SDS011;59417;44.788;10.334;2023-04-07T08:02:44;16.52;;;9.85;;
28174;SDS011;59417;44.788;10.334;2023-04-07T08:05:10;15.88;;;9.43;;
28174;SDS011;59417;44.788;10.334;2023-04-07T08:07:37;14.55;;;9.18;;
28174;SDS011;59417;44.788;10.334;2023-04-07T08:10:03;13.30;;;10.18;;
28174;SDS011;59417;44.788;10.334;2023-04-07T08:12:28;17.25;;;10.15;;
28174;SDS011;59417;44.788;10.334;2023-04-07T08:14:54;17.58;;;11.52;;
28174;SDS011;59417;44.788;10.334;2023-04-07T08:17:20;19.90;;;11.75;;
28174;SDS011;59417;44.788;10.334;2023-04-07T08:19:45;19.45;;;12.10;;
28174;SDS011;59417;44.788;10.334;2023-04-07T08:22:11;16.33;;;11.55;;
28174;SDS011;59417;44.788;10.334;2023-04-07T08:24:37;17.48;;;12.18;;
28174;SDS011;59417;44.788;10.334;2023-04-07T08:27:02;21.95;;;12.57;;
28174;SDS011;59417;44.788;10.334;2023-04-07T08:29:28;26.55;;;13.00;;
28174;SDS011;59417;44.788;10.334;2023-04-07T08:31:54;21.02;;;12.65;;
28174;SDS011;59417;44.788;10.334;2023-04-07T08:34:20;18.75;;;11.88;;
28174;SDS011;59417;44.788;10.334;2023-04-07T08:36:46;17.23;;;12.35;;
28174;SDS011;59417;44.788;10.334;2023-04-07T08:39:11;22.50;;;13.45;;
28174;SDS011;59417;44.788;10.334;2023-04-07T08:41:38;22.50;;;13.80;;
28174;SDS011;59417;44.788;10.334;2023-04-07T08:44:05;18.70;;;12.98;;
28174;SDS011;59417;44.788;10.334;2023-04-07T08:46:33;20.30;;;13.32;;
28174;SDS011;59417;44.788;10.334;2023-04-07T08:49:00;24.02;;;13.27;;
28174;SDS011;59417;44.788;10.334;2023-04-07T08:51:30;17.67;;;13.18;;
28174;SDS011;59417;44.788;10.334;2023-04-07T08:54:09;21.50;;;12.52;;
28174;SDS011;59417;44.788;10.334;2023-04-07T08:56:39;23.50;;;15.07;;
28174;SDS011;59417;44.788;10.334;2023-04-07T08:59:07;25.23;;;14.52;;
28174;SDS011;59417;44.788;10.334;2023-04-07T09:01:34;24.08;;;14.48;;
28174;SDS011;59417;44.788;10.334;2023-04-07T09:04:03;21.98;;;13.95;;
28174;SDS011;59417;44.788;10.334;2023-04-07T09:06:31;23.05;;;14.15;;
28174;SDS011;59417;44.788;10.334;2023-04-07T09:08:58;22.48;;;14.07;;
28174;SDS011;59417;44.788;10.334;2023-04-07T09:11:28;18.00;;;12.90;;
28174;SDS011;59417;44.788;10.334;2023-04-07T09:13:55;22.67;;;14.00;;
28174;SDS011;59417;44.788;10.334;2023-04-07T09:16:21;23.17;;;14.52;;
28174;SDS011;59417;44.788;10.334;2023-04-07T09:18:48;28.98;;;14.57;;
28174;SDS011;59417;44.788;10.334;2023-04-07T09:21:14;23.50;;;13.70;;
28174;SDS011;59417;44.788;10.334;2023-04-07T09:23:40;25.10;;;14.80;;
28174;SDS011;59417;44.788;10.334;2023-04-07T09:28:49;22.85;;;14.55;;
28174;SDS011;59417;44.788;10.334;2023-04-07T09:31:22;19.35;;;13.57;;
28174;SDS011;59417;44.788;10.334;2023-04-07T09:33:52;24.45;;;15.48;;
28174;SDS011;59417;44.788;10.334;2023-04-07T09:36:18;22.83;;;14.35;;
28174;SDS011;59417;44.788;10.334;2023-04-07T09:38:44;24.10;;;14.60;;
28174;SDS011;59417;44.788;10.334;2023-04-07T09:41:11;23.13;;;15.02;;
28174;SDS011;59417;44.788;10.334;2023-04-07T09:43:39;28.35;;;15.73;;
28174;SDS011;59417;44.788;10.334;2023-04-07T09:46:13;24.83;;;13.88;;
28174;SDS011;59417;44.788;10.334;2023-04-07T09:48:41;18.95;;;14.80;;
28174;SDS011;59417;44.788;10.334;2023-04-07T09:51:12;22.02;;;13.98;;
28174;SDS011;59417;44.788;10.334;2023-04-07T09:53:45;20.42;;;12.90;;
28174;SDS011;59417;44.788;10.334;2023-04-07T09:56:19;25.67;;;14.82;;
28174;SDS011;59417;44.788;10.334;2023-04-07T09:58:49;20.90;;;13.45;;
28174;SDS011;59417;44.788;10.334;2023-04-07T10:01:19;27.23;;;14.95;;
28174;SDS011;59417;44.788;10.334;2023-04-07T10:03:46;19.67;;;14.52;;
28174;SDS011;59417;44.788;10.334;2023-04-07T10:06:13;21.45;;;14.50;;
28174;SDS011;59417;44.788;10.334;2023-04-07T10:08:40;20.40;;;14.20;;
28174;SDS011;59417;44.788;10.334;2023-04-07T10:11:07;20.38;;;13.50;;
28174;SDS011;59417;44.788;10.334;2023-04-07T10:13:35;20.98;;;12.98;;
28174;SDS011;59417;44.788;10.334;2023-04-07T10:16:03;21.13;;;13.90;;
28174;SDS011;59417;44.788;10.334;2023-04-07T10:18:30;18.02;;;12.60;;
28174;SDS011;59417;44.788;10.334;2023-04-07T10:21:03;25.63;;;13.98;;
28174;SDS011;59417;44.788;10.334;2023-04-07T10:26:25;23.48;;;13.88;;
28174;SDS011;59417;44.788;10.334;2023-04-07T10:28:56;23.20;;;13.88;;
28174;SDS011;59417;44.788;10.334;2023-04-07T10:31:29;19.75;;;13.98;;
28174;SDS011;59417;44.788;10.334;2023-04-07T10:33:55;23.55;;;14.48;;
28174;SDS011;59417;44.788;10.334;2023-04-07T10:36:21;22.55;;;14.90;;
28174;SDS011;59417;44.788;10.334;2023-04-07T10:44:01;17.95;;;13.10;;
28174;SDS011;59417;44.788;10.334;2023-04-07T10:49:16;21.48;;;14.68;;
28174;SDS011;59417;44.788;10.334;2023-04-07T10:51:42;22.58;;;15.32;;
28174;SDS011;59417;44.788;10.334;2023-04-07T10:54:14;21.88;;;14.63;;
28174;SDS011;59417;44.788;10.334;2023-04-07T10:59:29;20.83;;;15.68;;
28174;SDS011;59417;44.788;10.334;2023-04-07T11:04:37;27.35;;;15.98;;
28174;SDS011;59417;44.788;10.334;2023-04-07T11:07:03;25.00;;;16.80;;
28174;SDS011;59417;44.788;10.334;2023-04-07T11:09:29;28.52;;;15.95;;
28174;SDS011;59417;44.788;10.334;2023-04-07T11:11:55;23.58;;;16.10;;
28174;SDS011;59417;44.788;10.334;2023-04-07T11:14:30;24.75;;;15.95;;
28174;SDS011;59417;44.788;10.334;2023-04-07T11:16:57;21.48;;;15.60;;
28174;SDS011;59417;44.788;10.334;2023-04-07T11:19:24;27.52;;;16.27;;
28174;SDS011;59417;44.788;10.334;2023-04-07T11:21:50;23.35;;;16.08;;
28174;SDS011;59417;44.788;10.334;2023-04-07T11:24:40;24.05;;;16.08;;
28174;SDS011;59417;44.788;10.334;2023-04-07T11:27:08;22.15;;;15.05;;
28174;SDS011;59417;44.788;10.334;2023-04-07T11:29:39;21.30;;;15.98;;
28174;SDS011;59417;44.788;10.334;2023-04-07T11:32:05;23.38;;;16.95;;
28174;SDS011;59417;44.788;10.334;2023-04-07T11:34:31;22.35;;;15.20;;
28174;SDS011;59417;44.788;10.334;2023-04-07T11:36:59;22.80;;;15.82;;
28174;SDS011;59417;44.788;10.334;2023-04-07T11:39:56;23.73;;;17.02;;
28174;SDS011;59417;44.788;10.334;2023-04-07T11:42:38;28.45;;;17.42;;
28174;SDS011;59417;44.788;10.334;2023-04-07T11:45:05;31.73;;;18.70;;
28174;SDS011;59417;44.788;10.334;2023-04-07T11:47:40;25.30;;;18.45;;
28174;SDS011;59417;44.788;10.334;2023-04-07T11:50:06;27.98;;;17.58;;
28174;SDS011;59417;44.788;10.334;2023-04-07T11:52:42;28.67;;;18.30;;
28174;SDS011;59417;44.788;10.334;2023-04-07T11:55:29;25.20;;;17.17;;
28174;SDS011;59417;44.788;10.334;2023-04-07T11:57:54;29.05;;;18.23;;
28174;SDS011;59417;44.788;10.334;2023-04-07T12:00:30;24.65;;;17.67;;
28174;SDS011;59417;44.788;10.334;2023-04-07T12:02:56;24.77;;;16.92;;
28174;SDS011;59417;44.788;10.334;2023-04-07T12:05:22;26.92;;;16.40;;
28174;SDS011;59417;44.788;10.334;2023-04-07T12:07:52;27.20;;;18.90;;
28174;SDS011;59417;44.788;10.334;2023-04-07T12:10:20;31.63;;;20.30;;
28174;SDS011;59417;44.788;10.334;2023-04-07T12:12:47;29.80;;;18.67;;
28174;SDS011;59417;44.788;10.334;2023-04-07T12:15:13;25.20;;;17.95;;
28174;SDS011;59417;44.788;10.334;2023-04-07T12:17:43;27.92;;;18.08;;
28174;SDS011;59417;44.788;10.334;2023-04-07T12:20:11;28.00;;;17.65;;
28174;SDS011;59417;44.788;10.334;2023-04-07T12:22:37;29.20;;;18.45;;
28174;SDS011;59417;44.788;10.334;2023-04-07T12:25:03;26.25;;;17.25;;
28174;SDS011;59417;44.788;10.334;2023-04-07T12:27:29;28.98;;;19.20;;
28174;SDS011;59417;44.788;10.334;2023-04-07T12:29:55;28.10;;;17.75;;
28174;SDS011;59417;44.788;10.334;2023-04-07T12:32:21;23.73;;;16.95;;
28174;SDS011;59417;44.788;10.334;2023-04-07T12:34:47;24.15;;;17.17;;
28174;SDS011;59417;44.788;10.334;2023-04-07T12:37:12;24.13;;;16.88;;
28174;SDS011;59417;44.788;10.334;2023-04-07T12:39:38;27.50;;;17.27;;
28174;SDS011;59417;44.788;10.334;2023-04-07T12:42:04;25.02;;;17.05;;
28174;SDS011;59417;44.788;10.334;2023-04-07T12:44:30;31.15;;;17.30;;
28174;SDS011;59417;44.788;10.334;2023-04-07T12:46:55;22.17;;;15.57;;
28174;SDS011;59417;44.788;10.334;2023-04-07T12:49:21;24.27;;;16.63;;
28174;SDS011;59417;44.788;10.334;2023-04-07T12:51:47;24.52;;;16.92;;
28174;SDS011;59417;44.788;10.334;2023-04-07T12:54:13;28.15;;;16.00;;
28174;SDS011;59417;44.788;10.334;2023-04-07T12:56:39;24.85;;;16.33;;
28174;SDS011;59417;44.788;10.334;2023-04-07T12:59:06;20.20;;;15.10;;
28174;SDS011;59417;44.788;10.334;2023-04-07T13:01:32;22.70;;;15.57;;
28174;SDS011;59417;44.788;10.334;2023-04-07T13:03:59;24.50;;;15.90;;
28174;SDS011;59417;44.788;10.334;2023-04-07T13:06:26;23.95;;;16.80;;
28174;SDS011;59417;44.788;10.334;2023-04-07T13:08:51;23.00;;;16.05;;
28174;SDS011;59417;44.788;10.334;2023-04-07T13:11:17;25.40;;;15.68;;
28174;SDS011;59417;44.788;10.334;2023-04-07T13:13:43;26.55;;;15.32;;
28174;SDS011;59417;44.788;10.334;2023-04-07T13:16:09;26.45;;;17.17;;
28174;SDS011;59417;44.788;10.334;2023-04-07T13:18:34;22.23;;;16.10;;
28174;SDS011;59417;44.788;10.334;2023-04-07T13:21:01;27.70;;;16.98;;
28174;SDS011;59417;44.788;10.334;2023-04-07T13:23:27;26.27;;;17.63;;
28174;SDS011;59417;44.788;10.334;2023-04-07T13:25:53;24.25;;;16.70;;
28174;SDS011;59417;44.788;10.334;2023-04-07T13:28:18;34.83;;;18.23;;
28174;SDS011;59417;44.788;10.334;2023-04-07T13:30:45;29.90;;;16.95;;
28174;SDS011;59417;44.788;10.334;2023-04-07T13:33:11;26.63;;;17.38;;
28174;SDS011;59417;44.788;10.334;2023-04-07T13:35:37;26.70;;;17.08;;
28174;SDS011;59417;44.788;10.334;2023-04-07T13:38:03;29.17;;;19.88;;
28174;SDS011;59417;44.788;10.334;2023-04-07T13:40:29;31.20;;;20.65;;
28174;SDS011;59417;44.788;10.334;2023-04-07T13:42:55;34.10;;;20.67;;
28174;SDS011;59417;44.788;10.334;2023-04-07T13:45:24;32.17;;;19.02;;
28174;SDS011;59417;44.788;10.334;2023-04-07T13:47:50;29.60;;;19.77;;
28174;SDS011;59417;44.788;10.334;2023-04-07T13:50:16;36.85;;;20.05;;
28174;SDS011;59417;44.788;10.334;2023-04-07T13:52:42;34.17;;;20.80;;
28174;SDS011;59417;44.788;10.334;2023-04-07T13:55:08;30.48;;;19.55;;
28174;SDS011;59417;44.788;10.334;2023-04-07T13:57:34;31.65;;;20.20;;
28174;SDS011;59417;44.788;10.334;2023-04-07T13:59:59;29.02;;;18.90;;
28174;SDS011;59417;44.788;10.334;2023-04-07T14:02:26;36.20;;;22.27;;
28174;SDS011;59417;44.788;10.334;2023-04-07T14:04:53;27.98;;;16.77;;
28174;SDS011;59417;44.788;10.334;2023-04-07T14:07:19;24.70;;;17.23;;
28174;SDS011;59417;44.788;10.334;2023-04-07T14:09:47;22.48;;;15.00;;
28174;SDS011;59417;44.788;10.334;2023-04-07T14:12:13;21.60;;;14.13;;
28174;SDS011;59417;44.788;10.334;2023-04-07T14:14:39;22.83;;;14.02;;
28174;SDS011;59417;44.788;10.334;2023-04-07T14:17:05;20.80;;;14.13;;
28174;SDS011;59417;44.788;10.334;2023-04-07T14:19:30;21.38;;;14.95;;
28174;SDS011;59417;44.788;10.334;2023-04-07T14:21:58;18.85;;;13.57;;
28174;SDS011;59417;44.788;10.334;2023-04-07T14:24:23;21.48;;;14.35;;
28174;SDS011;59417;44.788;10.334;2023-04-07T14:26:49;23.92;;;14.98;;
28174;SDS011;59417;44.788;10.334;2023-04-07T14:29:15;23.20;;;14.13;;
28174;SDS011;59417;44.788;10.334;2023-04-07T14:31:41;25.50;;;15.95;;
28174;SDS011;59417;44.788;10.334;2023-04-07T14:34:09;22.88;;;16.77;;
28174;SDS011;59417;44.788;10.334;2023-04-07T14:36:34;20.48;;;15.85;;
28174;SDS011;59417;44.788;10.334;2023-04-07T14:39:00;22.08;;;15.82;;
28174;SDS011;59417;44.788;10.334;2023-04-07T14:41:26;21.48;;;15.98;;
28174;SDS011;59417;44.788;10.334;2023-04-07T14:43:52;22.27;;;16.67;;
28174;SDS011;59417;44.788;10.334;2023-04-07T14:46:24;24.97;;;16.50;;
28174;SDS011;59417;44.788;10.334;2023-04-07T14:48:53;28.17;;;16.98;;